Time;durP1;ratioP1;P1;durP2;ratioP2;P2;SDS_P1;SDS_P2;PMS_P1;PMS_P2;Temp;Humidity;BMP_temperature;BMP_pressure;BME280_temperature;BME280_humidity;BME280_pressure;Samples;Min_cycle;Max_cycle;Signal;HPM_P1;HPM_P2
2023/09/12 00:03:10;;;;;;;9.48;7.70;;;;;;;;;;10101399;28;20060;-84
2023/09/12 00:08:07;;;;;;;9.85;8.48;;;;;;;;;;10097408;28;20137;-84
2023/09/12 00:13:04;;;;;;;8.60;7.80;;;;;;;;;;10070378;28;20049;-84
2023/09/12 00:17:59;;;;;;;13.07;8.93;;;;;;;;;;10103416;28;20066;-84
2023/09/12 00:22:54;;;;;;;8.82;7.93;;;;;;;;;;10081573;28;20080;-83
2023/09/12 00:27:48;;;;;;;9.77;8.63;;;;;;;;;;10105122;28;20412;-83
2023/09/12 00:32:43;;;;;;;9.80;8.70;;;;;;;;;;10085879;28;20053;-84
2023/09/12 00:37:36;;;;;;;8.10;7.30;;;;;;;;;;10081869;28;20433;-85
2023/09/12 00:42:30;;;;;;;7.95;7.13;;;;;;;;;;10101950;28;20037;-84
2023/09/12 00:47:24;;;;;;;8.38;7.57;;;;;;;;;;10096102;28;20467;-85
2023/09/12 00:52:20;;;;;;;14.32;7.97;;;;;;;;;;10063895;28;20068;-84
2023/09/12 00:57:16;;;;;;;9.23;7.97;;;;;;;;;;10080745;28;20049;-84
2023/09/12 01:02:10;;;;;;;8.25;7.45;;;;;;;;;;10096926;28;20087;-85
2023/09/12 01:07:05;;;;;;;10.52;7.93;;;;;;;;;;10100395;28;20374;-84
2023/09/12 01:12:02;;;;;;;8.80;7.90;;;;;;;;;;10079002;28;20061;-84
2023/09/12 01:16:56;;;;;;;10.07;9.07;;;;;;;;;;10099424;28;20053;-84
2023/09/12 01:22:20;;;;;;;10.05;9.13;;;;;;;;;;10083904;28;20053;-86
2023/09/12 01:27:28;;;;;;;11.13;8.88;;;;;;;;;;10062911;28;20497;-86
2023/09/12 01:32:22;;;;;;;9.50;8.60;;;;;;;;;;10049249;28;20053;-86
2023/09/12 01:37:15;;;;;;;8.98;8.10;;;;;;;;;;10082086;28;20049;-87
2023/09/12 01:42:15;;;;;;;11.55;9.43;;;;;;;;;;10098640;28;20478;-86
2023/09/12 01:47:11;;;;;;;9.68;8.65;;;;;;;;;;10100674;28;20048;-86
2023/09/12 01:52:06;;;;;;;10.98;8.82;;;;;;;;;;10083611;28;20147;-86
2023/09/12 01:56:59;;;;;;;11.75;8.20;;;;;;;;;;10067770;28;20069;-86
2023/09/12 02:01:53;;;;;;;11.60;8.60;;;;;;;;;;10088572;28;20081;-86
2023/09/12 02:06:46;;;;;;;9.50;8.38;;;;;;;;;;10093656;28;20055;-86
2023/09/12 02:11:41;;;;;;;9.45;8.55;;;;;;;;;;10109017;28;20043;-86
2023/09/12 02:16:37;;;;;;;8.90;8.10;;;;;;;;;;10067043;28;20140;-85
2023/09/12 02:21:36;;;;;;;10.05;9.13;;;;;;;;;;10073766;28;20049;-87
2023/09/12 02:26:29;;;;;;;9.45;8.45;;;;;;;;;;10078389;28;20132;-86
2023/09/12 02:31:23;;;;;;;10.80;7.95;;;;;;;;;;10087721;28;20076;-86
2023/09/12 02:36:17;;;;;;;8.93;8.13;;;;;;;;;;10089887;28;20508;-86
2023/09/12 02:41:11;;;;;;;8.57;7.78;;;;;;;;;;10080325;28;20135;-86
2023/09/12 02:46:04;;;;;;;9.38;8.02;;;;;;;;;;10071056;28;20133;-86
2023/09/12 02:50:59;;;;;;;9.73;7.35;;;;;;;;;;10066733;28;20111;-86
2023/09/12 02:55:55;;;;;;;8.82;8.00;;;;;;;;;;10106457;28;20550;-87
2023/09/12 03:00:54;;;;;;;10.10;8.40;;;;;;;;;;10100171;28;20067;-86
2023/09/12 03:05:48;;;;;;;8.57;7.80;;;;;;;;;;10100213;28;20086;-86
2023/09/12 03:10:42;;;;;;;9.15;7.32;;;;;;;;;;10103949;28;20051;-86
2023/09/12 03:15:38;;;;;;;12.88;7.95;;;;;;;;;;10103485;28;20059;-86
2023/09/12 03:20:32;;;;;;;8.63;7.88;;;;;;;;;;10086634;28;20069;-86
2023/09/12 03:25:26;;;;;;;9.85;8.15;;;;;;;;;;10083160;28;20091;-85
2023/09/12 03:30:21;;;;;;;10.45;7.40;;;;;;;;;;10096122;28;20135;-85
2023/09/12 03:35:16;;;;;;;7.72;6.80;;;;;;;;;;10103821;28;20518;-87
2023/09/12 03:40:14;;;;;;;8.40;7.45;;;;;;;;;;10106696;28;20057;-87
2023/09/12 03:45:11;;;;;;;8.63;7.72;;;;;;;;;;10069388;28;20488;-86
2023/09/12 03:50:06;;;;;;;8.15;7.45;;;;;;;;;;10086831;28;20049;-82
2023/09/12 03:55:00;;;;;;;8.07;7.35;;;;;;;;;;10047541;28;20046;-86
2023/09/12 03:59:54;;;;;;;9.40;8.10;;;;;;;;;;10085536;28;20094;-86
2023/09/12 04:04:49;;;;;;;9.52;7.82;;;;;;;;;;10086769;28;20148;-86
2023/09/12 04:09:42;;;;;;;8.88;8.05;;;;;;;;;;10048488;28;20522;-86
2023/09/12 04:14:36;;;;;;;10.02;7.82;;;;;;;;;;10070135;28;20061;-85
2023/09/12 04:19:31;;;;;;;9.30;8.50;;;;;;;;;;10108217;28;20060;-85
2023/09/12 04:24:25;;;;;;;8.88;8.07;;;;;;;;;;10089794;28;20130;-86
2023/09/12 04:29:20;;;;;;;9.23;8.40;;;;;;;;;;10081083;28;20053;-85
2023/09/12 04:34:14;;;;;;;15.88;11.63;;;;;;;;;;10085936;28;20154;-86
2023/09/12 04:39:08;;;;;;;13.57;11.88;;;;;;;;;;10053452;28;20088;-85
2023/09/12 04:44:04;;;;;;;11.73;10.68;;;;;;;;;;10075531;28;20483;-86
2023/09/12 04:48:58;;;;;;;11.18;10.13;;;;;;;;;;10103218;28;20132;-85
2023/09/12 04:53:52;;;;;;;11.05;9.88;;;;;;;;;;10088864;28;20045;-86
2023/09/12 04:58:45;;;;;;;12.70;9.80;;;;;;;;;;10066256;28;20049;-85
2023/09/12 05:03:39;;;;;;;11.13;9.32;;;;;;;;;;10086485;28;20148;-86
2023/09/12 05:08:32;;;;;;;9.55;8.38;;;;;;;;;;10085202;28;20048;-85
2023/09/12 05:13:27;;;;;;;10.13;8.93;;;;;;;;;;10075398;28;20045;-86
2023/09/12 05:18:21;;;;;;;10.70;9.65;;;;;;;;;;10067109;28;20393;-85
2023/09/12 05:23:15;;;;;;;12.18;10.98;;;;;;;;;;10088079;28;20148;-83
2023/09/12 05:28:10;;;;;;;9.55;8.73;;;;;;;;;;10108474;28;20037;-83
2023/09/12 05:33:04;;;;;;;12.68;10.45;;;;;;;;;;10120992;28;20045;-83
2023/09/12 05:37:58;;;;;;;12.07;10.60;;;;;;;;;;10124418;28;20060;-82
2023/09/12 05:42:53;;;;;;;17.98;14.95;;;;;;;;;;10146077;28;20040;-82
2023/09/12 05:47:50;;;;;;;15.48;13.20;;;;;;;;;;10135501;28;20049;-82
2023/09/12 05:52:44;;;;;;;17.60;14.00;;;;;;;;;;10127846;28;20082;-82
2023/09/12 05:57:39;;;;;;;19.48;11.43;;;;;;;;;;10125791;28;20143;-82
2023/09/12 06:02:33;;;;;;;16.05;12.88;;;;;;;;;;10088656;28;20113;-83
2023/09/12 06:07:26;;;;;;;23.17;14.48;;;;;;;;;;10099307;28;20037;-81
2023/09/12 06:12:20;;;;;;;17.85;15.90;;;;;;;;;;10109201;28;20471;-81
2023/09/12 06:17:14;;;;;;;18.25;16.35;;;;;;;;;;10109724;28;20182;-82
2023/09/12 06:22:08;;;;;;;18.98;16.92;;;;;;;;;;10097755;28;20507;-82
2023/09/12 06:27:02;;;;;;;27.40;19.33;;;;;;;;;;10110642;28;20159;-82
2023/09/12 06:31:57;;;;;;;18.83;16.90;;;;;;;;;;10093994;28;20400;-83
2023/09/12 06:36:51;;;;;;;20.75;17.48;;;;;;;;;;10105292;28;20122;-81
2023/09/12 06:41:45;;;;;;;24.77;17.77;;;;;;;;;;10105382;28;20049;-84
2023/09/12 06:46:39;;;;;;;22.15;18.35;;;;;;;;;;10104711;28;20087;-82
2023/09/12 06:51:35;;;;;;;25.52;18.40;;;;;;;;;;10106156;28;20381;-82
2023/09/12 06:56:32;;;;;;;20.08;17.77;;;;;;;;;;10109491;28;20048;-83
2023/09/12 07:01:25;;;;;;;20.05;17.90;;;;;;;;;;10090861;28;20048;-83
2023/09/12 07:06:20;;;;;;;20.35;17.90;;;;;;;;;;10079728;28;20045;-83
2023/09/12 07:11:15;;;;;;;22.75;19.80;;;;;;;;;;10106511;28;20511;-83
2023/09/12 07:16:10;;;;;;;24.50;21.52;;;;;;;;;;10106923;28;20056;-82
2023/09/12 07:21:06;;;;;;;32.92;29.05;;;;;;;;;;10105083;28;20077;-81
2023/09/12 07:26:02;;;;;;;33.08;29.42;;;;;;;;;;10105843;28;20045;-83
2023/09/12 07:30:59;;;;;;;31.65;28.73;;;;;;;;;;10083753;28;20046;-81
2023/09/12 07:35:55;;;;;;;31.20;26.85;;;;;;;;;;10088460;28;20072;-82
2023/09/12 07:40:49;;;;;;;25.40;22.70;;;;;;;;;;10095208;28;20056;-83
2023/09/12 07:45:43;;;;;;;24.27;20.27;;;;;;;;;;10104055;28;20067;-82
2023/09/12 07:50:38;;;;;;;27.17;22.13;;;;;;;;;;10105741;28;20547;-81
2023/09/12 07:55:36;;;;;;;23.30;20.90;;;;;;;;;;10103379;28;20048;-82
2023/09/12 08:00:31;;;;;;;25.65;18.40;;;;;;;;;;10102487;28;20579;-82
2023/09/12 08:05:28;;;;;;;25.90;17.58;;;;;;;;;;10085387;28;20074;-81
2023/09/12 08:10:22;;;;;;;24.83;16.13;;;;;;;;;;10104640;28;20059;-81
2023/09/12 08:15:17;;;;;;;22.23;16.33;;;;;;;;;;10104873;28;20041;-82
2023/09/12 08:20:12;;;;;;;23.00;15.77;;;;;;;;;;10104500;28;20049;-81
2023/09/12 08:25:08;;;;;;;23.17;16.88;;;;;;;;;;10103208;28;20548;-82
2023/09/12 08:30:04;;;;;;;17.10;14.63;;;;;;;;;;10092609;28;20049;-84
2023/09/12 08:34:59;;;;;;;12.75;11.43;;;;;;;;;;10083764;28;20170;-83
2023/09/12 08:39:57;;;;;;;13.55;11.57;;;;;;;;;;10103908;28;20037;-84
2023/09/12 08:44:51;;;;;;;12.87;10.87;;;;;;;;;;10102761;28;20500;-83
2023/09/12 08:49:48;;;;;;;21.05;11.95;;;;;;;;;;10068462;28;20041;-83
2023/09/12 08:54:41;;;;;;;17.45;9.90;;;;;;;;;;10101780;28;20055;-83
2023/09/12 08:59:35;;;;;;;14.55;11.25;;;;;;;;;;10098237;28;20092;-82
2023/09/12 09:04:30;;;;;;;14.23;9.93;;;;;;;;;;10092292;28;20048;-83
2023/09/12 09:09:24;;;;;;;17.20;11.35;;;;;;;;;;10099093;28;20099;-83
2023/09/12 09:14:18;;;;;;;14.93;10.43;;;;;;;;;;10082444;28;20080;-84
2023/09/12 09:19:12;;;;;;;11.68;10.40;;;;;;;;;;10102967;28;20508;-84
2023/09/12 09:24:08;;;;;;;14.60;10.32;;;;;;;;;;10100840;28;20120;-84
2023/09/12 09:29:09;;;;;;;13.23;10.07;;;;;;;;;;10094560;28;20100;-83
2023/09/12 09:34:04;;;;;;;10.27;9.20;;;;;;;;;;10075387;28;20087;-84
2023/09/12 09:39:03;;;;;;;12.75;11.45;;;;;;;;;;10091820;28;20112;-84
2023/09/12 09:43:59;;;;;;;10.88;9.65;;;;;;;;;;10098553;28;20214;-84
2023/09/12 09:48:53;;;;;;;11.45;10.35;;;;;;;;;;10100317;28;20584;-84
2023/09/12 09:53:51;;;;;;;12.40;11.15;;;;;;;;;;10102818;28;20103;-83
2023/09/12 09:58:49;;;;;;;;;;;;;;;;;;10080867;28;20117;-84
2023/09/12 10:03:47;;;;;;;12.63;10.35;;;;;;;;;;10076121;28;19928;-84
2023/09/12 10:08:41;;;;;;;14.13;10.40;;;;;;;;;;10067575;28;20045;-84
2023/09/12 10:13:35;;;;;;;14.93;9.77;;;;;;;;;;10083449;28;20068;-84
2023/09/12 10:18:35;;;;;;;11.90;10.65;;;;;;;;;;10084070;28;20620;-85
2023/09/12 10:23:43;;;;;;;13.07;11.57;;;;;;;;;;10104740;28;20166;-83
2023/09/12 10:28:53;;;;;;;13.18;10.95;;;;;;;;;;10098513;28;20137;-85
2023/09/12 10:33:47;;;;;;;11.55;10.05;;;;;;;;;;10062858;28;20045;-81
2023/09/12 10:38:44;;;;;;;11.90;10.70;;;;;;;;;;10072364;28;20041;-82
2023/09/12 10:43:39;;;;;;;11.13;10.02;;;;;;;;;;10088706;28;20057;-83
2023/09/12 10:48:35;;;;;;;13.23;11.45;;;;;;;;;;10089220;28;20049;-83
2023/09/12 10:53:33;;;;;;;11.40;10.18;;;;;;;;;;10105813;28;20056;-83
2023/09/12 10:58:54;;;;;;;11.43;9.87;;;;;;;;;;10087758;28;20084;-90
2023/09/12 11:03:48;;;;;;;11.35;10.35;;;;;;;;;;10098245;28;20349;-90
2023/09/12 11:08:42;;;;;;;12.48;11.20;;;;;;;;;;10106983;28;20048;-90
2023/09/12 11:13:40;;;;;;;10.73;9.63;;;;;;;;;;10085093;28;20092;-91
2023/09/12 11:18:34;;;;;;;10.15;9.25;;;;;;;;;;10072357;28;20131;-91
2023/09/12 11:23:28;;;;;;;12.07;10.88;;;;;;;;;;10100727;28;20070;-91
2023/09/12 11:28:31;;;;;;;11.05;9.00;;;;;;;;;;10093776;28;20052;-90
2023/09/12 11:33:26;;;;;;;10.38;9.32;;;;;;;;;;10076040;28;20052;-92
2023/09/12 11:38:40;;;;;;;10.45;9.43;;;;;;;;;;10105404;28;20055;-90
2023/09/12 11:43:36;;;;;;;9.07;8.27;;;;;;;;;;10088027;28;20100;-91
2023/09/12 11:48:30;;;;;;;10.82;7.85;;;;;;;;;;10067813;28;20052;-90
2023/09/12 11:53:26;;;;;;;9.40;8.27;;;;;;;;;;10107510;28;20049;-91
2023/09/12 11:58:21;;;;;;;11.90;8.57;;;;;;;;;;10080931;28;20088;-91
2023/09/12 12:03:16;;;;;;;10.15;7.70;;;;;;;;;;10081579;28;20040;-90
2023/09/12 12:08:11;;;;;;;8.98;8.18;;;;;;;;;;10072084;28;20079;-91
2023/09/12 12:13:23;;;;;;;9.57;7.68;;;;;;;;;;10096447;28;20106;-90
2023/09/12 12:18:17;;;;;;;11.50;7.45;;;;;;;;;;10083070;28;20072;-90
2023/09/12 12:23:11;;;;;;;16.88;7.10;;;;;;;;;;10093832;28;20412;-91
2023/09/12 12:28:14;;;;;;;11.52;8.23;;;;;;;;;;10096300;28;20068;-92
2023/09/12 12:33:09;;;;;;;10.57;6.63;;;;;;;;;;10083139;28;20061;-91
2023/09/12 12:38:23;;;;;;;9.68;8.80;;;;;;;;;;10084792;28;20068;-91
2023/09/12 12:43:20;;;;;;;11.07;7.95;;;;;;;;;;10093229;28;20045;-90
2023/09/12 12:48:14;;;;;;;10.73;7.90;;;;;;;;;;10103282;28;20458;-91
2023/09/12 12:53:08;;;;;;;13.85;8.05;;;;;;;;;;10106750;28;20159;-93
2023/09/12 12:58:06;;;;;;;8.07;7.38;;;;;;;;;;10105997;28;20096;-93
2023/09/12 13:03:00;;;;;;;;;;;;;;;;;;10082169;28;20049;-90
2023/09/12 13:07:55;;;;;;;8.88;7.45;;;;;;;;;;10094997;28;20330;-91
2023/09/12 13:12:49;;;;;;;7.53;6.82;;;;;;;;;;10082447;28;20045;-93
2023/09/12 13:17:43;;;;;;;16.63;8.55;;;;;;;;;;10084279;28;20057;-94
2023/09/12 13:22:38;;;;;;;12.05;6.65;;;;;;;;;;10098110;28;20065;-95
2023/09/12 13:27:33;;;;;;;13.00;7.30;;;;;;;;;;10108480;28;20079;-95
2023/09/12 13:32:27;;;;;;;9.88;8.70;;;;;;;;;;10099291;28;20080;-93
2023/09/12 13:37:21;;;;;;;7.88;6.03;;;;;;;;;;10105419;28;20124;-92
2023/09/12 13:42:37;;;;;;;14.15;7.15;;;;;;;;;;10099717;28;20076;-94
2023/09/12 13:47:32;;;;;;;8.77;6.85;;;;;;;;;;10105158;28;20470;-91
2023/09/12 13:52:27;;;;;;;8.60;7.55;;;;;;;;;;10085829;28;20384;-92
2023/09/12 13:57:21;;;;;;;10.05;7.20;;;;;;;;;;10113623;28;20045;-91
2023/09/12 14:02:18;;;;;;;9.75;6.95;;;;;;;;;;10116960;28;20052;-93
2023/09/12 14:07:12;;;;;;;8.73;6.43;;;;;;;;;;10089810;28;20111;-93
2023/09/12 14:12:08;;;;;;;8.90;7.38;;;;;;;;;;10108297;28;20045;-94
2023/09/12 14:17:19;;;;;;;11.80;7.47;;;;;;;;;;10104172;28;20057;-93
2023/09/12 14:22:13;;;;;;;11.80;7.22;;;;;;;;;;10114308;28;20049;-94
2023/09/12 14:27:08;;;;;;;6.78;6.15;;;;;;;;;;10116565;28;20079;-92
2023/09/12 14:32:17;;;;;;;9.15;7.60;;;;;;;;;;10108159;28;20052;-94
2023/09/12 14:37:11;;;;;;;12.55;7.22;;;;;;;;;;10112190;28;20047;-93
2023/09/12 14:42:08;;;;;;;12.32;6.45;;;;;;;;;;10115089;28;20079;-94
2023/09/12 14:47:02;;;;;;;7.47;6.28;;;;;;;;;;10111103;28;20415;-92
2023/09/12 14:51:57;;;;;;;7.18;6.47;;;;;;;;;;10111711;28;20132;-93
2023/09/12 14:56:51;;;;;;;7.72;7.03;;;;;;;;;;10080232;28;20045;-95
2023/09/12 15:01:46;;;;;;;8.73;6.70;;;;;;;;;;10094155;28;20053;-94
2023/09/12 15:06:40;;;;;;;9.15;6.60;;;;;;;;;;10085848;28;20045;-93
2023/09/12 15:11:34;;;;;;;8.00;6.88;;;;;;;;;;10112382;28;20061;-93
2023/09/12 15:16:34;;;;;;;11.80;6.40;;;;;;;;;;10117152;28;20053;-94
2023/09/12 15:21:30;;;;;;;11.20;7.72;;;;;;;;;;10103437;28;20048;-93
2023/09/12 15:26:26;;;;;;;10.45;7.28;;;;;;;;;;10086617;28;20525;-96
2023/09/12 15:31:20;;;;;;;11.02;7.47;;;;;;;;;;10093352;28;20057;-96
2023/09/12 15:36:36;;;;;;;11.02;6.40;;;;;;;;;;10116493;28;20032;-96
2023/09/12 15:41:30;;;;;;;11.30;7.03;;;;;;;;;;10111654;28;20057;-96
2023/09/12 15:46:24;;;;;;;11.80;7.03;;;;;;;;;;10122599;28;20053;-96
2023/09/12 15:51:27;;;;;;;11.27;6.90;;;;;;;;;;10116086;28;20049;-94
2023/09/12 15:56:22;;;;;;;7.57;6.72;;;;;;;;;;10113826;28;20055;-95
2023/09/12 16:01:16;;;;;;;11.38;7.57;;;;;;;;;;10088714;28;20054;-95
2023/09/12 16:06:10;;;;;;;9.48;6.88;;;;;;;;;;10088824;28;20049;-93
2023/09/12 16:11:05;;;;;;;9.25;7.20;;;;;;;;;;10112899;28;20065;-95
2023/09/12 16:16:02;;;;;;;13.48;7.82;;;;;;;;;;10116457;28;20083;-93
2023/09/12 16:21:19;;;;;;;9.02;6.70;;;;;;;;;;10113638;28;20043;-94
2023/09/12 16:26:14;;;;;;;8.35;6.80;;;;;;;;;;10112326;28;20041;-94
2023/09/12 16:31:08;;;;;;;13.70;7.97;;;;;;;;;;10112366;28;20106;-94
2023/09/12 16:36:03;;;;;;;11.45;6.75;;;;;;;;;;10114373;28;20139;-95
2023/09/12 16:40:58;;;;;;;15.35;6.53;;;;;;;;;;10114585;28;20144;-95
2023/09/12 16:45:52;;;;;;;16.98;6.63;;;;;;;;;;10115791;28;20510;-95
2023/09/12 16:50:45;;;;;;;11.65;7.88;;;;;;;;;;10111884;28;20112;-96
2023/09/12 16:55:40;;;;;;;14.38;8.30;;;;;;;;;;10112234;28;20045;-96
2023/09/12 17:00:34;;;;;;;11.73;8.25;;;;;;;;;;10098793;28;20045;-96
2023/09/12 17:05:35;;;;;;;15.65;13.98;;;;;;;;;;10088816;28;20122;-96
2023/09/12 17:10:31;;;;;;;11.40;7.10;;;;;;;;;;10090431;28;20041;-96
2023/09/12 17:15:24;;;;;;;10.55;7.63;;;;;;;;;;10121236;28;20480;-96
2023/09/12 17:20:19;;;;;;;10.63;6.90;;;;;;;;;;10120410;28;20170;-96
2023/09/12 17:25:14;;;;;;;9.85;7.40;;;;;;;;;;10124161;28;20145;-96
2023/09/12 17:30:10;;;;;;;9.45;7.13;;;;;;;;;;10113292;28;20029;-95
2023/09/12 17:35:05;;;;;;;9.38;7.82;;;;;;;;;;10118650;28;20049;-96
2023/09/12 17:39:59;;;;;;;9.48;6.68;;;;;;;;;;10122069;28;20120;-96
2023/09/12 17:44:53;;;;;;;20.17;8.68;;;;;;;;;;10113119;28;20072;-95
2023/09/12 17:49:47;;;;;;;12.30;7.18;;;;;;;;;;10083712;28;20080;-94
2023/09/12 17:54:44;;;;;;;8.25;7.18;;;;;;;;;;10099216;28;20101;-95
2023/09/12 17:59:40;;;;;;;8.00;7.20;;;;;;;;;;10116824;28;20108;-95
2023/09/12 18:04:34;;;;;;;10.73;8.18;;;;;;;;;;10093506;28;20049;-95
2023/09/12 18:09:29;;;;;;;17.60;7.90;;;;;;;;;;10106775;28;20049;-96
2023/09/12 18:14:25;;;;;;;9.10;8.05;;;;;;;;;;10112610;28;20048;-94
2023/09/12 18:19:21;;;;;;;10.77;8.30;;;;;;;;;;10113279;28;20053;-95
2023/09/12 18:24:16;;;;;;;13.82;8.15;;;;;;;;;;10111657;28;20132;-96
2023/09/12 18:29:14;;;;;;;15.13;8.07;;;;;;;;;;10077428;28;20064;-95
2023/09/12 18:34:09;;;;;;;9.07;8.23;;;;;;;;;;10087888;28;20431;-96
2023/09/12 18:39:06;;;;;;;9.20;8.07;;;;;;;;;;10114353;28;20126;-95
2023/09/12 18:44:00;;;;;;;8.80;7.72;;;;;;;;;;10114518;28;20558;-96
2023/09/12 18:48:55;;;;;;;10.48;8.30;;;;;;;;;;10117458;28;20060;-96
2023/09/12 18:53:49;;;;;;;12.20;8.63;;;;;;;;;;10117666;28;20124;-96
2023/09/12 18:58:43;;;;;;;8.18;7.30;;;;;;;;;;10122120;28;20045;-96
2023/09/12 19:03:39;;;;;;;12.32;7.82;;;;;;;;;;10130362;28;20106;-95
2023/09/12 19:08:36;;;;;;;14.43;7.50;;;;;;;;;;10114085;28;20049;-96
2023/09/12 19:13:31;;;;;;;12.73;8.23;;;;;;;;;;10137592;28;20028;-96
2023/09/12 19:18:24;;;;;;;8.30;7.47;;;;;;;;;;10105797;28;20057;-95
2023/09/12 19:23:18;;;;;;;10.50;8.35;;;;;;;;;;10111618;28;20128;-95
2023/09/12 19:28:12;;;;;;;9.80;7.80;;;;;;;;;;10128459;28;20056;-96
2023/09/12 19:33:10;;;;;;;9.48;7.43;;;;;;;;;;10110832;28;20114;-96
2023/09/12 19:38:05;;;;;;;10.48;8.45;;;;;;;;;;10129428;28;20105;-94
2023/09/12 19:42:59;;;;;;;10.40;8.43;;;;;;;;;;10093890;28;20051;-95
2023/09/12 19:47:55;;;;;;;11.02;8.73;;;;;;;;;;10107880;28;20081;-94
2023/09/12 19:52:54;;;;;;;11.65;9.35;;;;;;;;;;10101566;28;20108;-94
2023/09/12 19:57:49;;;;;;;14.23;9.73;;;;;;;;;;10112005;28;20059;-93
2023/09/12 20:02:43;;;;;;;11.52;8.65;;;;;;;;;;10111870;28;20403;-94
2023/09/12 20:07:38;;;;;;;9.40;8.60;;;;;;;;;;10112597;28;20056;-94
2023/09/12 20:12:33;;;;;;;10.30;9.02;;;;;;;;;;10112387;28;20132;-94
2023/09/12 20:17:29;;;;;;;14.05;10.38;;;;;;;;;;10112771;28;20049;-94
2023/09/12 20:22:23;;;;;;;12.27;8.90;;;;;;;;;;10099565;28;20047;-94
2023/09/12 20:27:27;;;;;;;13.80;9.43;;;;;;;;;;10131852;28;20033;-94
2023/09/12 20:32:24;;;;;;;16.15;9.68;;;;;;;;;;10156640;28;20049;-94
2023/09/12 20:37:17;;;;;;;12.77;8.73;;;;;;;;;;10152789;28;20056;-94
2023/09/12 20:42:12;;;;;;;9.73;8.80;;;;;;;;;;10155214;28;20062;-93
2023/09/12 20:47:08;;;;;;;12.68;9.35;;;;;;;;;;10145964;28;20039;-92
2023/09/12 20:52:02;;;;;;;14.68;9.38;;;;;;;;;;10155605;28;20060;-93
2023/09/12 20:56:57;;;;;;;11.95;9.25;;;;;;;;;;10138510;28;20045;-95
2023/09/12 21:01:50;;;;;;;9.38;8.52;;;;;;;;;;10131653;28;20037;-92
2023/09/12 21:06:44;;;;;;;10.27;9.18;;;;;;;;;;10114721;28;20079;-93
2023/09/12 21:11:38;;;;;;;11.77;9.18;;;;;;;;;;10109271;28;20041;-92
2023/09/12 21:16:32;;;;;;;11.27;10.05;;;;;;;;;;10093610;28;20523;-93
2023/09/12 21:21:26;;;;;;;12.15;9.88;;;;;;;;;;10110863;28;20061;-94
2023/09/12 21:26:20;;;;;;;14.60;10.65;;;;;;;;;;10110995;28;20100;-94
2023/09/12 21:31:14;;;;;;;10.95;8.50;;;;;;;;;;10111876;28;20056;-93
2023/09/12 21:36:13;;;;;;;10.80;9.80;;;;;;;;;;10098385;28;20547;-94
2023/09/12 21:41:08;;;;;;;11.68;8.52;;;;;;;;;;10113472;28;20053;-94
2023/09/12 21:46:01;;;;;;;16.60;9.52;;;;;;;;;;10112996;28;20057;-94
2023/09/12 21:50:55;;;;;;;11.73;9.63;;;;;;;;;;10111005;28;20385;-93
2023/09/12 21:55:49;;;;;;;10.43;9.18;;;;;;;;;;10115298;28;20565;-94
2023/09/12 22:00:43;;;;;;;11.98;9.60;;;;;;;;;;10090297;28;20580;-93
2023/09/12 22:05:38;;;;;;;14.77;9.20;;;;;;;;;;10106464;28;20053;-94
2023/09/12 22:10:33;;;;;;;12.63;8.05;;;;;;;;;;10109878;28;20072;-93
2023/09/12 22:15:27;;;;;;;13.40;8.82;;;;;;;;;;10109786;28;20053;-93
2023/09/12 22:20:21;;;;;;;10.30;9.10;;;;;;;;;;10106389;28;20049;-93
2023/09/12 22:25:18;;;;;;;9.77;8.82;;;;;;;;;;10104388;28;20049;-93
2023/09/12 22:30:13;;;;;;;9.20;8.40;;;;;;;;;;10116617;28;20053;-94
2023/09/12 22:35:10;;;;;;;14.57;8.37;;;;;;;;;;10103871;28;20411;-93
2023/09/12 22:40:08;;;;;;;9.93;8.95;;;;;;;;;;10116773;28;20041;-94
2023/09/12 22:45:25;;;;;;;9.20;8.38;;;;;;;;;;10118368;28;20103;-96
2023/09/12 22:50:20;;;;;;;10.25;8.68;;;;;;;;;;10110999;28;20053;-94
2023/09/12 22:55:15;;;;;;;9.73;8.18;;;;;;;;;;10103413;28;20053;-96
2023/09/12 23:00:14;;;;;;;8.73;7.90;;;;;;;;;;10115915;28;20064;-96
2023/09/12 23:05:08;;;;;;;10.57;8.90;;;;;;;;;;10104275;28;20076;-96
2023/09/12 23:10:03;;;;;;;9.98;9.00;;;;;;;;;;10120740;28;20068;-96
2023/09/12 23:14:58;;;;;;;10.05;9.20;;;;;;;;;;10132742;28;20550;-94
2023/09/12 23:19:54;;;;;;;9.18;8.30;;;;;;;;;;10110842;28;20061;-94
2023/09/12 23:24:50;;;;;;;13.70;9.23;;;;;;;;;;10111464;28;20051;-95
2023/09/12 23:29:44;;;;;;;11.02;8.90;;;;;;;;;;10104081;28;20048;-94
2023/09/12 23:34:38;;;;;;;8.82;7.97;;;;;;;;;;10100232;28;20428;-95
2023/09/12 23:39:34;;;;;;;10.63;8.00;;;;;;;;;;10114305;28;20049;-96
2023/09/12 23:44:30;;;;;;;9.95;8.85;;;;;;;;;;10112820;28;20148;-94
2023/09/12 23:49:25;;;;;;;12.57;8.23;;;;;;;;;;10114053;28;20075;-95
2023/09/12 23:54:21;;;;;;;12.88;9.02;;;;;;;;;;10098171;28;20060;-95
2023/09/12 23:59:15;;;;;;;16.05;11.63;;;;;;;;;;10091933;28;20049;-95
